Terminal Aerodrome Forecast
Issued by NWS Bismarck, ND

Home | Current Version | Previous Version | Graphics & Text | Print | Product List | Glossary On
Versions: 1 2 3 4 5 6 7 8 9 10 11 12 13 14 15 16 17 18 19 20 21 22
000
FTUS43 KBIS 150538
TAFISN
TAF
KISN 150538Z 1506/1606 24005KT P6SM SCT100 BKN250
     FM151500 23008KT P6SM BKN070
     FM152000 25010KT P6SM SCT070 BKN250
     FM160000 28007KT P6SM BKN090
     FM160500 30008KT P6SM OVC025=

USA.gov is the U.S. government's official web portal to all federal, state and local government web resources and services.